sensor_id;sensor_type;location;lat;lon;timestamp;pressure;altitude;pressure_sealevel;temperature;humidity
74346;BME280;62776;50.518;6.732;2024-01-15T00:02:15;95311.88;;;-0.26;100.00
74346;BME280;62776;50.518;6.732;2024-01-15T00:05:02;95306.78;;;-0.26;100.00
74346;BME280;62776;50.518;6.732;2024-01-15T00:07:48;95303.34;;;-0.28;100.00
74346;BME280;62776;50.518;6.732;2024-01-15T00:10:35;95299.91;;;-0.33;100.00
74346;BME280;62776;50.518;6.732;2024-01-15T00:13:21;95298.19;;;-0.33;100.00
74346;BME280;62776;50.518;6.732;2024-01-15T00:16:07;95300.78;;;-0.30;100.00
74346;BME280;62776;50.518;6.732;2024-01-15T00:18:54;95293.97;;;-0.31;100.00
74346;BME280;62776;50.518;6.732;2024-01-15T00:21:40;95287.19;;;-0.27;100.00
74346;BME280;62776;50.518;6.732;2024-01-15T00:24:29;95282.97;;;-0.25;100.00
74346;BME280;62776;50.518;6.732;2024-01-15T00:27:16;95282.06;;;-0.29;100.00
74346;BME280;62776;50.518;6.732;2024-01-15T00:30:02;95289.72;;;-0.27;100.00
74346;BME280;62776;50.518;6.732;2024-01-15T00:32:50;95280.34;;;-0.30;100.00
74346;BME280;62776;50.518;6.732;2024-01-15T00:35:37;95280.34;;;-0.30;100.00
74346;BME280;62776;50.518;6.732;2024-01-15T00:38:26;95269.28;;;-0.33;100.00
74346;BME280;62776;50.518;6.732;2024-01-15T00:41:13;95271.81;;;-0.33;100.00
74346;BME280;62776;50.518;6.732;2024-01-15T00:44:02;95266.69;;;-0.35;100.00
74346;BME280;62776;50.518;6.732;2024-01-15T00:46:48;95254.84;;;-0.27;100.00
74346;BME280;62776;50.518;6.732;2024-01-15T00:49:38;95270.94;;;-0.35;100.00
74346;BME280;62776;50.518;6.732;2024-01-15T00:52:25;95262.50;;;-0.28;100.00
74346;BME280;62776;50.518;6.732;2024-01-15T00:55:13;95274.41;;;-0.30;100.00
74346;BME280;62776;50.518;6.732;2024-01-15T00:58:00;95261.66;;;-0.29;100.00
74346;BME280;62776;50.518;6.732;2024-01-15T01:00:46;95258.31;;;-0.23;100.00
74346;BME280;62776;50.518;6.732;2024-01-15T01:03:33;95260.00;;;-0.24;100.00
74346;BME280;62776;50.518;6.732;2024-01-15T01:06:19;95260.81;;;-0.25;100.00
74346;BME280;62776;50.518;6.732;2024-01-15T01:09:06;95259.13;;;-0.24;100.00
74346;BME280;62776;50.518;6.732;2024-01-15T01:11:52;95260.81;;;-0.25;100.00
74346;BME280;62776;50.518;6.732;2024-01-15T01:14:39;95255.78;;;-0.20;100.00
74346;BME280;62776;50.518;6.732;2024-01-15T01:17:25;95254.06;;;-0.21;100.00
74346;BME280;62776;50.518;6.732;2024-01-15T01:20:12;95259.19;;;-0.20;100.00
74346;BME280;62776;50.518;6.732;2024-01-15T01:22:58;95254.97;;;-0.18;100.00
74346;BME280;62776;50.518;6.732;2024-01-15T01:25:55;95252.28;;;-0.31;100.00
74346;BME280;62776;50.518;6.732;2024-01-15T01:28:42;95239.59;;;-0.21;100.00
74346;BME280;62776;50.518;6.732;2024-01-15T01:31:28;95243.78;;;-0.30;100.00
74346;BME280;62776;50.518;6.732;2024-01-15T01:34:15;95243.78;;;-0.30;100.00
74346;BME280;62776;50.518;6.732;2024-01-15T01:37:02;95238.69;;;-0.30;100.00
74346;BME280;62776;50.518;6.732;2024-01-15T01:39:48;95244.66;;;-0.28;100.00
74346;BME280;62776;50.518;6.732;2024-01-15T01:42:35;95246.38;;;-0.24;100.00
74346;BME280;62776;50.518;6.732;2024-01-15T01:45:21;95244.69;;;-0.24;100.00
74346;BME280;62776;50.518;6.732;2024-01-15T01:48:08;95241.31;;;-0.20;100.00
74346;BME280;62776;50.518;6.732;2024-01-15T01:51:03;95236.94;;;-0.31;100.00
74346;BME280;62776;50.518;6.732;2024-01-15T01:53:51;95238.72;;;-0.24;100.00
74346;BME280;62776;50.518;6.732;2024-01-15T01:56:37;95241.31;;;-0.18;100.00
74346;BME280;62776;50.518;6.732;2024-01-15T01:59:27;95228.50;;;-0.24;100.00
74346;BME280;62776;50.518;6.732;2024-01-15T02:02:23;95227.66;;;-0.23;100.00
74346;BME280;62776;50.518;6.732;2024-01-15T02:05:29;95237.03;;;-0.24;100.00
74346;BME280;62776;50.518;6.732;2024-01-15T02:08:19;95230.31;;;-0.14;100.00
74346;BME280;62776;50.518;6.732;2024-01-15T02:11:16;95230.28;;;-0.16;100.00
74346;BME280;62776;50.518;6.732;2024-01-15T02:14:08;95238.88;;;-0.09;100.00
74346;BME280;62776;50.518;6.732;2024-01-15T02:16:55;95230.41;;;-0.04;100.00
74346;BME280;62776;50.518;6.732;2024-01-15T02:19:41;95238.03;;;-0.05;100.00
74346;BME280;62776;50.518;6.732;2024-01-15T02:22:33;95237.16;;;-0.10;100.00
74346;BME280;62776;50.518;6.732;2024-01-15T02:25:20;95236.84;;;-0.40;100.00
74346;BME280;62776;50.518;6.732;2024-01-15T02:28:11;95240.53;;;-0.13;100.00
74346;BME280;62776;50.518;6.732;2024-01-15T02:31:04;95238.84;;;-0.12;100.00
74346;BME280;62776;50.518;6.732;2024-01-15T02:33:56;95236.84;;;-0.40;100.00
74346;BME280;62776;50.518;6.732;2024-01-15T02:36:45;95254.19;;;-0.09;100.00
74346;BME280;62776;50.518;6.732;2024-01-15T02:39:52;95254.09;;;-0.18;100.00
74346;BME280;62776;50.518;6.732;2024-01-15T02:42:39;95251.66;;;-0.06;100.00
74346;BME280;62776;50.518;6.732;2024-01-15T02:45:43;95238.97;;;0.00;100.00
74346;BME280;62776;50.518;6.732;2024-01-15T02:48:35;95245.72;;;-0.02;100.00
74346;BME280;62776;50.518;6.732;2024-01-15T02:51:22;95246.56;;;-0.06;100.00
74346;BME280;62776;50.518;6.732;2024-01-15T02:54:08;95249.16;;;-0.03;100.00
74346;BME280;62776;50.518;6.732;2024-01-15T03:12:16;95232.09;;;-0.04;100.00
74346;BME280;62776;50.518;6.732;2024-01-15T03:15:05;95222.75;;;-0.04;100.00
74346;BME280;62776;50.518;6.732;2024-01-15T03:17:52;95240.66;;;0.01;100.00
74346;BME280;62776;50.518;6.732;2024-01-15T03:20:38;95239.78;;;0.00;100.00
74346;BME280;62776;50.518;6.732;2024-01-15T03:23:24;95234.72;;;0.02;100.00
74346;BME280;62776;50.518;6.732;2024-01-15T03:26:31;95231.97;;;-0.16;100.00
74346;BME280;62776;50.518;6.732;2024-01-15T03:29:18;95247.44;;;-0.01;100.00
74346;BME280;62776;50.518;6.732;2024-01-15T03:32:05;95236.41;;;0.00;100.00
74346;BME280;62776;50.518;6.732;2024-01-15T03:34:53;95240.59;;;-0.05;100.00
74346;BME280;62776;50.518;6.732;2024-01-15T03:37:39;95244.00;;;-0.05;100.00
74346;BME280;62776;50.518;6.732;2024-01-15T03:40:25;95243.97;;;-0.08;100.00
74346;BME280;62776;50.518;6.732;2024-01-15T03:43:14;95240.59;;;-0.05;100.00
74346;BME280;62776;50.518;6.732;2024-01-15T03:46:02;95238.03;;;-0.05;100.00
74346;BME280;62776;50.518;6.732;2024-01-15T03:48:48;95238.06;;;-0.02;100.00
74346;BME280;62776;50.518;6.732;2024-01-15T03:51:34;95237.25;;;-0.01;100.00
74346;BME280;62776;50.518;6.732;2024-01-15T03:54:20;95238.09;;;0.01;100.00
74346;BME280;62776;50.518;6.732;2024-01-15T03:57:16;95237.22;;;-0.06;100.00
74346;BME280;62776;50.518;6.732;2024-01-15T04:00:03;95235.56;;;0.03;100.00
74346;BME280;62776;50.518;6.732;2024-01-15T04:02:53;95235.53;;;0.01;100.00
74346;BME280;62776;50.518;6.732;2024-01-15T04:05:40;95237.28;;;0.02;100.00
74346;BME280;62776;50.518;6.732;2024-01-15T04:08:26;95223.63;;;0.03;100.00
74346;BME280;62776;50.518;6.732;2024-01-15T04:11:12;95222.78;;;0.01;100.00
74346;BME280;62776;50.518;6.732;2024-01-15T04:14:01;95223.59;;;-0.03;100.00
74346;BME280;62776;50.518;6.732;2024-01-15T04:16:48;95218.50;;;-0.02;100.00
74346;BME280;62776;50.518;6.732;2024-01-15T04:20:03;95223.53;;;-0.12;100.00
74346;BME280;62776;50.518;6.732;2024-01-15T04:22:51;95219.38;;;0.04;100.00
74346;BME280;62776;50.518;6.732;2024-01-15T04:25:38;95213.47;;;0.08;100.00
74346;BME280;62776;50.518;6.732;2024-01-15T04:28:27;95209.22;;;0.11;100.00
74346;BME280;62776;50.518;6.732;2024-01-15T04:31:22;95206.66;;;0.07;100.00
74346;BME280;62776;50.518;6.732;2024-01-15T04:34:10;95211.00;;;0.18;100.00
74346;BME280;62776;50.518;6.732;2024-01-15T04:36:56;95205.06;;;0.19;100.00
74346;BME280;62776;50.518;6.732;2024-01-15T04:39:43;95199.13;;;0.25;100.00
74346;BME280;62776;50.518;6.732;2024-01-15T04:42:29;95196.59;;;0.26;100.00
74346;BME280;62776;50.518;6.732;2024-01-15T04:45:15;95189.72;;;0.22;100.00
74346;BME280;62776;50.518;6.732;2024-01-15T04:48:02;95201.69;;;0.26;100.00
74346;BME280;62776;50.518;6.732;2024-01-15T04:50:49;95194.88;;;0.27;100.00
74346;BME280;62776;50.518;6.732;2024-01-15T04:53:38;95199.13;;;0.28;100.00
74346;BME280;62776;50.518;6.732;2024-01-15T04:56:25;95189.78;;;0.28;100.00
74346;BME280;62776;50.518;6.732;2024-01-15T04:59:11;95198.28;;;0.30;100.00
74346;BME280;62776;50.518;6.732;2024-01-15T05:01:58;95182.16;;;0.33;100.00
74346;BME280;62776;50.518;6.732;2024-01-15T05:04:44;95180.41;;;0.30;100.00
74346;BME280;62776;50.518;6.732;2024-01-15T05:07:31;95177.84;;;0.29;100.00
74346;BME280;62776;50.518;6.732;2024-01-15T05:10:20;95177.06;;;0.33;100.00
74346;BME280;62776;50.518;6.732;2024-01-15T05:13:06;95178.72;;;0.29;100.00
74346;BME280;62776;50.518;6.732;2024-01-15T05:15:53;95179.56;;;0.27;100.00
74346;BME280;62776;50.518;6.732;2024-01-15T05:18:42;95176.13;;;0.23;100.00
74346;BME280;62776;50.518;6.732;2024-01-15T05:21:29;95173.59;;;0.26;100.00
74346;BME280;62776;50.518;6.732;2024-01-15T05:24:15;95170.22;;;0.32;100.00
74346;BME280;62776;50.518;6.732;2024-01-15T05:27:01;95160.84;;;0.29;100.00
74346;BME280;62776;50.518;6.732;2024-01-15T05:29:48;95164.22;;;0.28;100.00
74346;BME280;62776;50.518;6.732;2024-01-15T05:32:34;95160.84;;;0.32;100.00
74346;BME280;62776;50.518;6.732;2024-01-15T05:35:20;95158.22;;;0.23;100.00
74346;BME280;62776;50.518;6.732;2024-01-15T05:38:08;95162.50;;;0.21;100.00
74346;BME280;62776;50.518;6.732;2024-01-15T05:40:55;95162.47;;;0.20;100.00
74346;BME280;62776;50.518;6.732;2024-01-15T05:43:42;95162.50;;;0.21;100.00
74346;BME280;62776;50.518;6.732;2024-01-15T05:46:31;95169.28;;;0.21;100.00
74346;BME280;62776;50.518;6.732;2024-01-15T05:49:17;95171.03;;;0.26;100.00
74346;BME280;62776;50.518;6.732;2024-01-15T05:52:03;95165.94;;;0.26;100.00
74346;BME280;62776;50.518;6.732;2024-01-15T05:54:58;95171.84;;;0.19;100.00
74346;BME280;62776;50.518;6.732;2024-01-15T05:57:45;95167.59;;;0.21;100.00
74346;BME280;62776;50.518;6.732;2024-01-15T06:00:34;95172.69;;;0.20;100.00
74346;BME280;62776;50.518;6.732;2024-01-15T06:03:21;95171.84;;;0.21;100.00
74346;BME280;62776;50.518;6.732;2024-01-15T06:06:09;95167.56;;;0.20;100.00
74346;BME280;62776;50.518;6.732;2024-01-15T06:08:56;95165.94;;;0.26;100.00
74346;BME280;62776;50.518;6.732;2024-01-15T06:11:45;95162.47;;;0.23;100.00
74346;BME280;62776;50.518;6.732;2024-01-15T06:14:31;95159.06;;;0.21;100.00
74346;BME280;62776;50.518;6.732;2024-01-15T06:17:17;95159.94;;;0.26;100.00
74346;BME280;62776;50.518;6.732;2024-01-15T06:20:05;95150.56;;;0.23;100.00
74346;BME280;62776;50.518;6.732;2024-01-15T06:22:57;95149.69;;;0.20;100.00
74346;BME280;62776;50.518;6.732;2024-01-15T06:25:44;95148.84;;;0.16;100.00
74346;BME280;62776;50.518;6.732;2024-01-15T06:28:30;95145.41;;;0.16;100.00
74346;BME280;62776;50.518;6.732;2024-01-15T06:31:17;95153.06;;;0.13;100.00
74346;BME280;62776;50.518;6.732;2024-01-15T06:34:03;95140.28;;;0.14;100.00
74346;BME280;62776;50.518;6.732;2024-01-15T06:36:49;95141.19;;;0.16;100.00
74346;BME280;62776;50.518;6.732;2024-01-15T06:39:36;95144.59;;;0.18;100.00
74346;BME280;62776;50.518;6.732;2024-01-15T06:42:22;95144.56;;;0.17;100.00
74346;BME280;62776;50.518;6.732;2024-01-15T06:45:08;95146.31;;;0.21;100.00
74346;BME280;62776;50.518;6.732;2024-01-15T06:47:56;95148.00;;;0.23;100.00
74346;BME280;62776;50.518;6.732;2024-01-15T06:50:43;95149.72;;;0.23;100.00
74346;BME280;62776;50.518;6.732;2024-01-15T06:53:29;95143.75;;;0.21;100.00
74346;BME280;62776;50.518;6.732;2024-01-15T06:56:17;95137.81;;;0.23;100.00
74346;BME280;62776;50.518;6.732;2024-01-15T06:59:04;95138.63;;;0.22;100.00
74346;BME280;62776;50.518;6.732;2024-01-15T07:01:50;95140.28;;;0.14;100.00
74346;BME280;62776;50.518;6.732;2024-01-15T07:04:36;95134.31;;;0.08;100.00
74346;BME280;62776;50.518;6.732;2024-01-15T07:07:22;95130.00;;;0.04;100.00
74346;BME280;62776;50.518;6.732;2024-01-15T07:10:10;95130.81;;;-0.02;100.00
74346;BME280;62776;50.518;6.732;2024-01-15T07:13:00;95133.31;;;-0.08;100.00
74346;BME280;62776;50.518;6.732;2024-01-15T07:15:49;95134.97;;;-0.18;100.00
74346;BME280;62776;50.518;6.732;2024-01-15T07:18:37;95138.38;;;-0.17;100.00
74346;BME280;62776;50.518;6.732;2024-01-15T07:21:23;95138.38;;;-0.17;100.00
74346;BME280;62776;50.518;6.732;2024-01-15T07:24:10;95140.97;;;-0.13;100.00
74346;BME280;62776;50.518;6.732;2024-01-15T07:26:56;95132.50;;;-0.06;100.00
74346;BME280;62776;50.518;6.732;2024-01-15T07:29:42;95139.31;;;-0.05;100.00
74346;BME280;62776;50.518;6.732;2024-01-15T07:32:29;95141.03;;;-0.04;100.00
74346;BME280;62776;50.518;6.732;2024-01-15T07:35:16;95131.69;;;-0.03;100.00
74346;BME280;62776;50.518;6.732;2024-01-15T07:38:05;95127.44;;;-0.01;100.00
74346;BME280;62776;50.518;6.732;2024-01-15T07:40:51;95126.56;;;-0.02;100.00
74346;BME280;62776;50.518;6.732;2024-01-15T07:43:39;95140.16;;;-0.04;100.00
74346;BME280;62776;50.518;6.732;2024-01-15T07:46:26;95135.13;;;0.02;100.00
74346;BME280;62776;50.518;6.732;2024-01-15T07:49:13;95130.84;;;0.06;100.00
74346;BME280;62776;50.518;6.732;2024-01-15T07:52:09;95127.44;;;0.02;100.00
74346;BME280;62776;50.518;6.732;2024-01-15T07:55:06;95128.31;;;0.04;100.00
74346;BME280;62776;50.518;6.732;2024-01-15T07:57:59;95133.38;;;-0.02;100.00
74346;BME280;62776;50.518;6.732;2024-01-15T08:00:49;95126.63;;;0.09;100.00
74346;BME280;62776;50.518;6.732;2024-01-15T08:03:38;95130.91;;;0.12;100.00
74346;BME280;62776;50.518;6.732;2024-01-15T08:06:31;95132.59;;;0.05;100.00
74346;BME280;62776;50.518;6.732;2024-01-15T08:09:21;95135.19;;;0.17;100.00
74346;BME280;62776;50.518;6.732;2024-01-15T08:12:10;95141.22;;;0.24;100.00
74346;BME280;62776;50.518;6.732;2024-01-15T08:14:57;95148.84;;;0.22;100.00
74346;BME280;62776;50.518;6.732;2024-01-15T08:17:44;95144.63;;;0.26;100.00
74346;BME280;62776;50.518;6.732;2024-01-15T08:20:30;95142.09;;;0.27;100.00
74346;BME280;62776;50.518;6.732;2024-01-15T08:23:16;95131.88;;;0.30;100.00
74346;BME280;62776;50.518;6.732;2024-01-15T08:26:03;95133.63;;;0.37;100.00
74346;BME280;62776;50.518;6.732;2024-01-15T08:28:49;95137.94;;;0.46;100.00
74346;BME280;62776;50.518;6.732;2024-01-15T08:31:36;95126.06;;;0.54;100.00
74346;BME280;62776;50.518;6.732;2024-01-15T08:34:22;95124.34;;;0.60;100.00
74346;BME280;62776;50.518;6.732;2024-01-15T08:37:08;95120.97;;;0.66;100.00
74346;BME280;62776;50.518;6.732;2024-01-15T08:39:55;95129.50;;;0.67;100.00
74346;BME280;62776;50.518;6.732;2024-01-15T08:42:41;95124.44;;;0.74;100.00
74346;BME280;62776;50.518;6.732;2024-01-15T08:45:27;95124.44;;;0.76;100.00
74346;BME280;62776;50.518;6.732;2024-01-15T08:48:13;95135.53;;;0.78;100.00
74346;BME280;62776;50.518;6.732;2024-01-15T08:51:01;95138.94;;;0.81;100.00
74346;BME280;62776;50.518;6.732;2024-01-15T08:53:55;95147.47;;;0.83;100.00
74346;BME280;62776;50.518;6.732;2024-01-15T08:56:41;95140.69;;;0.91;100.00
74346;BME280;62776;50.518;6.732;2024-01-15T08:59:27;95141.56;;;0.93;100.00
74346;BME280;62776;50.518;6.732;2024-01-15T09:02:16;95133.88;;;0.96;100.00
74346;BME280;62776;50.518;6.732;2024-01-15T09:05:03;95143.31;;;1.03;100.00
74346;BME280;62776;50.518;6.732;2024-01-15T09:07:50;95150.94;;;1.02;100.00
74346;BME280;62776;50.518;6.732;2024-01-15T09:10:37;95154.38;;;1.02;100.00
74346;BME280;62776;50.518;6.732;2024-01-15T09:13:29;95152.66;;;1.03;100.00
74346;BME280;62776;50.518;6.732;2024-01-15T09:16:15;95161.22;;;1.06;100.00
74346;BME280;62776;50.518;6.732;2024-01-15T09:19:08;95165.44;;;1.04;100.00
74346;BME280;62776;50.518;6.732;2024-01-15T09:22:14;95158.59;;;0.94;100.00
74346;BME280;62776;50.518;6.732;2024-01-15T09:46:10;95155.38;;;1.85;100.00
74346;BME280;62776;50.518;6.732;2024-01-15T09:49:17;95149.41;;;1.54;100.00
74346;BME280;62776;50.518;6.732;2024-01-15T09:52:04;95152.78;;;1.54;100.00
74346;BME280;62776;50.518;6.732;2024-01-15T09:54:53;95148.53;;;1.58;100.00
74346;BME280;62776;50.518;6.732;2024-01-15T09:57:41;95145.13;;;1.63;100.00
74346;BME280;62776;50.518;6.732;2024-01-15T10:00:33;95147.69;;;1.63;100.00
74346;BME280;62776;50.518;6.732;2024-01-15T10:03:19;95146.00;;;1.64;100.00
74346;BME280;62776;50.518;6.732;2024-01-15T10:06:09;95151.97;;;1.64;100.00
74346;BME280;62776;50.518;6.732;2024-01-15T10:09:05;95147.69;;;1.59;100.00
74346;BME280;62776;50.518;6.732;2024-01-15T10:11:52;95145.97;;;1.61;100.00
74346;BME280;62776;50.518;6.732;2024-01-15T10:14:41;95149.38;;;1.55;100.00
74346;BME280;62776;50.518;6.732;2024-01-15T10:17:35;95145.97;;;1.59;100.00
74346;BME280;62776;50.518;6.732;2024-01-15T10:20:27;95151.13;;;1.73;100.00
74346;BME280;62776;50.518;6.732;2024-01-15T10:23:22;95149.41;;;1.79;100.00
74346;BME280;62776;50.518;6.732;2024-01-15T10:26:12;95146.00;;;1.94;100.00
74346;BME280;62776;50.518;6.732;2024-01-15T10:29:04;95146.00;;;1.91;100.00
74346;BME280;62776;50.518;6.732;2024-01-15T10:31:54;95140.88;;;1.87;100.00
74346;BME280;62776;50.518;6.732;2024-01-15T10:35:04;95146.00;;;1.81;100.00
74346;BME280;62776;50.518;6.732;2024-01-15T10:37:55;95150.25;;;1.80;100.00
74346;BME280;62776;50.518;6.732;2024-01-15T10:40:41;95155.38;;;1.72;100.00
74346;BME280;62776;50.518;6.732;2024-01-15T10:43:36;95151.97;;;1.72;100.00
74346;BME280;62776;50.518;6.732;2024-01-15T10:46:23;95152.81;;;1.69;100.00
74346;BME280;62776;50.518;6.732;2024-01-15T10:52:39;95146.00;;;1.71;100.00
74346;BME280;62776;50.518;6.732;2024-01-15T10:55:38;95157.09;;;1.75;100.00
74346;BME280;62776;50.518;6.732;2024-01-15T10:58:35;95145.16;;;1.86;100.00
74346;BME280;62776;50.518;6.732;2024-01-15T11:01:29;95149.44;;;1.95;100.00
74346;BME280;62776;50.518;6.732;2024-01-15T11:04:19;95140.00;;;1.95;100.00
74346;BME280;62776;50.518;6.732;2024-01-15T11:07:06;95140.88;;;1.87;100.00
74346;BME280;62776;50.518;6.732;2024-01-15T11:09:53;95141.72;;;1.76;100.00
74346;BME280;62776;50.518;6.732;2024-01-15T11:12:42;95140.88;;;1.56;100.00
74346;BME280;62776;50.518;6.732;2024-01-15T11:15:31;95155.38;;;1.62;100.00
74346;BME280;62776;50.518;6.732;2024-01-15T11:18:20;95154.50;;;1.58;100.00
74346;BME280;62776;50.518;6.732;2024-01-15T11:24:03;95149.34;;;1.36;100.00
74346;BME280;62776;50.518;6.732;2024-01-15T11:26:52;95145.13;;;1.62;100.00
74346;BME280;62776;50.518;6.732;2024-01-15T11:29:40;95160.50;;;1.80;100.00
74346;BME280;62776;50.518;6.732;2024-01-15T11:32:33;95160.50;;;1.80;100.00
74346;BME280;62776;50.518;6.732;2024-01-15T11:35:20;95171.59;;;1.93;100.00
74346;BME280;62776;50.518;6.732;2024-01-15T11:38:06;95163.91;;;1.93;100.00
74346;BME280;62776;50.518;6.732;2024-01-15T11:40:54;95151.97;;;1.86;100.00
74346;BME280;62776;50.518;6.732;2024-01-15T11:43:41;95154.53;;;1.61;100.00
74346;BME280;62776;50.518;6.732;2024-01-15T11:46:32;95159.66;;;1.64;100.00
74346;BME280;62776;50.518;6.732;2024-01-15T11:50:01;95160.50;;;1.56;100.00
74346;BME280;62776;50.518;6.732;2024-01-15T11:53:00;95157.06;;;1.55;100.00
74346;BME280;62776;50.518;6.732;2024-01-15T11:55:51;95160.47;;;1.54;100.00
74346;BME280;62776;50.518;6.732;2024-01-15T11:58:44;95153.66;;;1.56;100.00
74346;BME280;62776;50.518;6.732;2024-01-15T12:01:31;95158.78;;;1.65;100.00
74346;BME280;62776;50.518;6.732;2024-01-15T12:04:39;95147.66;;;1.51;100.00
74346;BME280;62776;50.518;6.732;2024-01-15T12:07:26;95145.97;;;1.62;100.00
74346;BME280;62776;50.518;6.732;2024-01-15T12:10:16;95152.78;;;1.57;100.00
74346;BME280;62776;50.518;6.732;2024-01-15T12:13:13;95148.53;;;1.59;100.00
74346;BME280;62776;50.518;6.732;2024-01-15T12:16:03;95147.69;;;1.63;100.00
74346;BME280;62776;50.518;6.732;2024-01-15T12:18:51;95144.28;;;1.73;100.00
74346;BME280;62776;50.518;6.732;2024-01-15T12:21:42;95148.56;;;1.91;100.00
74346;BME280;62776;50.518;6.732;2024-01-15T12:24:31;95156.25;;;2.05;100.00
74346;BME280;62776;50.518;6.732;2024-01-15T12:27:18;95147.69;;;2.12;100.00
74346;BME280;62776;50.518;6.732;2024-01-15T12:30:06;95158.81;;;2.03;100.00
74346;BME280;62776;50.518;6.732;2024-01-15T12:32:55;95143.44;;;2.08;100.00
74346;BME280;62776;50.518;6.732;2024-01-15T12:35:49;95146.00;;;2.11;100.00
74346;BME280;62776;50.518;6.732;2024-01-15T12:38:35;95139.19;;;1.98;100.00
74346;BME280;62776;50.518;6.732;2024-01-15T12:41:21;95141.72;;;1.99;100.00
74346;BME280;62776;50.518;6.732;2024-01-15T12:44:10;95161.38;;;1.87;100.00
74346;BME280;62776;50.518;6.732;2024-01-15T12:46:57;95157.94;;;1.85;100.00
74346;BME280;62776;50.518;6.732;2024-01-15T12:49:46;95169.91;;;1.79;100.00
74346;BME280;62776;50.518;6.732;2024-01-15T12:52:35;95163.94;;;1.81;100.00
74346;BME280;62776;50.518;6.732;2024-01-15T12:55:23;95169.06;;;1.87;100.00
74346;BME280;62776;50.518;6.732;2024-01-15T12:58:12;95169.06;;;1.88;100.00
74346;BME280;62776;50.518;6.732;2024-01-15T13:00:58;95169.91;;;1.92;100.00
74346;BME280;62776;50.518;6.732;2024-01-15T13:03:44;95172.47;;;1.92;100.00
74346;BME280;62776;50.518;6.732;2024-01-15T13:06:33;95163.06;;;1.88;100.00
74346;BME280;62776;50.518;6.732;2024-01-15T13:09:22;95169.91;;;1.95;100.00
74346;BME280;62776;50.518;6.732;2024-01-15T13:12:12;95168.19;;;1.97;100.00
74346;BME280;62776;50.518;6.732;2024-01-15T13:14:58;95163.94;;;1.88;100.00
74346;BME280;62776;50.518;6.732;2024-01-15T13:17:50;95170.78;;;1.89;100.00
74346;BME280;62776;50.518;6.732;2024-01-15T13:20:37;95169.94;;;1.98;100.00
74346;BME280;62776;50.518;6.732;2024-01-15T13:23:23;95157.94;;;2.12;100.00
74346;BME280;62776;50.518;6.732;2024-01-15T13:26:13;95143.41;;;2.23;100.00
74346;BME280;62776;50.518;6.732;2024-01-15T13:29:06;95157.09;;;2.05;100.00
74346;BME280;62776;50.518;6.732;2024-01-15T13:31:52;95153.69;;;2.02;100.00
74346;BME280;62776;50.518;6.732;2024-01-15T13:34:44;95166.47;;;1.96;100.00
74346;BME280;62776;50.518;6.732;2024-01-15T13:37:41;95173.31;;;1.95;100.00
74346;BME280;62776;50.518;6.732;2024-01-15T13:40:43;95179.31;;;1.84;100.00
74346;BME280;62776;50.518;6.732;2024-01-15T13:43:37;95189.53;;;1.85;100.00
74346;BME280;62776;50.518;6.732;2024-01-15T13:46:46;95199.75;;;1.76;100.00
74346;BME280;62776;50.518;6.732;2024-01-15T13:49:32;95202.31;;;1.76;100.00
74346;BME280;62776;50.518;6.732;2024-01-15T13:52:23;95193.75;;;1.65;100.00
74346;BME280;62776;50.518;6.732;2024-01-15T13:55:12;95200.59;;;1.54;100.00
74346;BME280;62776;50.518;6.732;2024-01-15T13:57:58;95205.69;;;1.46;100.00
74346;BME280;62776;50.518;6.732;2024-01-15T14:00:46;95208.22;;;1.43;100.00
74346;BME280;62776;50.518;6.732;2024-01-15T14:03:33;95209.91;;;1.34;100.00
74346;BME280;62776;50.518;6.732;2024-01-15T14:06:20;95211.63;;;1.29;100.00
74346;BME280;62776;50.518;6.732;2024-01-15T14:09:06;95221.84;;;1.27;100.00
74346;BME280;62776;50.518;6.732;2024-01-15T14:11:58;95230.28;;;1.08;100.00
74346;BME280;62776;50.518;6.732;2024-01-15T14:14:44;95237.09;;;1.07;100.00
74346;BME280;62776;50.518;6.732;2024-01-15T14:17:33;95242.19;;;1.03;100.00
74346;BME280;62776;50.518;6.732;2024-01-15T14:20:23;95247.28;;;0.97;100.00
74346;BME280;62776;50.518;6.732;2024-01-15T14:23:09;95263.47;;;0.94;100.00
74346;BME280;62776;50.518;6.732;2024-01-15T14:25:57;95258.34;;;0.93;100.00
74346;BME280;62776;50.518;6.732;2024-01-15T14:28:49;95252.38;;;0.92;100.00
74346;BME280;62776;50.518;6.732;2024-01-15T14:31:38;95256.72;;;1.05;100.00
74346;BME280;62776;50.518;6.732;2024-01-15T14:34:25;95259.25;;;1.05;100.00
74346;BME280;62776;50.518;6.732;2024-01-15T14:37:13;95259.28;;;1.07;100.00
74346;BME280;62776;50.518;6.732;2024-01-15T14:40:17;95262.59;;;0.89;100.00
74346;BME280;62776;50.518;6.732;2024-01-15T14:43:07;95264.38;;;1.04;100.00
74346;BME280;62776;50.518;6.732;2024-01-15T14:49:02;95277.13;;;0.98;100.00
74346;BME280;62776;50.518;6.732;2024-01-15T14:51:48;95275.41;;;0.94;100.00
74346;BME280;62776;50.518;6.732;2024-01-15T14:54:35;95292.41;;;0.86;100.00
74346;BME280;62776;50.518;6.732;2024-01-15T14:57:27;95293.25;;;0.82;100.00
74346;BME280;62776;50.518;6.732;2024-01-15T15:00:13;95300.06;;;0.84;100.00
74346;BME280;62776;50.518;6.732;2024-01-15T15:02:59;95298.34;;;0.83;100.00
74346;BME280;62776;50.518;6.732;2024-01-15T15:05:45;95288.94;;;0.78;100.00
74346;BME280;62776;50.518;6.732;2024-01-15T15:08:32;95300.00;;;0.75;100.00
74346;BME280;62776;50.518;6.732;2024-01-15T15:11:22;95297.44;;;0.72;100.00
74346;BME280;62776;50.518;6.732;2024-01-15T15:14:11;95312.78;;;0.74;100.00
74346;BME280;62776;50.518;6.732;2024-01-15T15:17:04;95305.06;;;0.69;100.00
74346;BME280;62776;50.518;6.732;2024-01-15T15:19:51;95311.00;;;0.64;100.00
74346;BME280;62776;50.518;6.732;2024-01-15T15:22:39;95305.88;;;0.57;100.00
74346;BME280;62776;50.518;6.732;2024-01-15T15:25:25;95309.22;;;0.53;100.00
74346;BME280;62776;50.518;6.732;2024-01-15T15:28:13;95323.66;;;0.50;100.00
74346;BME280;62776;50.518;6.732;2024-01-15T15:31:02;95325.41;;;0.55;100.00
74346;BME280;62776;50.518;6.732;2024-01-15T15:33:49;95333.94;;;0.54;100.00
74346;BME280;62776;50.518;6.732;2024-01-15T15:36:35;95331.41;;;0.57;100.00
74346;BME280;62776;50.518;6.732;2024-01-15T15:39:24;95350.13;;;0.55;100.00